• Join FlightAware (Why Join?)
  • Login
  • US Flag 
12:52PM EDT


 

Airport Tracker/Info


-or-


 

Live Flight TrackerFlight Track Log ✈ GGN7280 ✈ 04-May-2013 ✈ CYYZ - KALB

Flight Track Log - Related Links

Times and Time Zones

All times are in EDT time to prevent confusion due to time zone crossing. See the GGN7280 flight status page for this flight to view local times or setup timezone preferences in your user account.

Time Position Orientation Groundspeed Altitude Reporting Facility
EDT Latitude Longitude Course Direction KTS MPH feet Rate Location/Type
09:28AM 43.6833 -79.6167 216° Southwest 10 12 600  Level Toronto Center
09:29AM 43.6667 -79.6333 216° Southwest 120 138 1,600 1,800 Climbing Toronto Center
09:30AM 43.6333 -79.6167 160° South 140 161 4,200 1,680 Climbing Toronto Center
09:31AM 43.6167 -79.5667 115° Southeast 170 196 5,000 1,320 Climbing Toronto Center
09:32AM 43.5833 -79.5000 125° Southeast 200 230 6,900 1,920 Climbing Toronto Center
09:33AM 43.5667 -79.4333 109° East 170 196 8,900 1,740 Climbing Toronto Center
09:34AM 43.5500 -79.3500 105° East 180 207 10,400 1,620 Climbing Toronto Center
09:35AM 43.5500 -79.2833 90° East 190 219 12,200 1,680 Climbing Toronto Center
09:36AM 43.5333 -79.2167 109° East 190 219 13,800 1,800 Climbing Toronto Center
09:37AM 43.5333 -79.1500 90° East 200 230 15,800 1,740 Climbing Toronto Center
09:38AM 43.5167 -79.0833 109° East 200 230 17,300 1,380 Climbing Toronto Center
09:39AM 43.5167 -78.9833 90° East 210 242 18,600 1,260 Climbing Toronto Center
09:40AM 43.5000 -78.9167 109° East 210 242 19,900 1,200 Climbing Toronto Center
09:41AM 43.4833 -78.8333 105° East 220 253 21,000 1,020 Climbing Toronto Center
09:42AM 43.4833 -78.7333 90° East 230 265 22,000 960 Climbing Toronto Center
09:43AM 43.4667 -78.6500 105° East 240 276 23,000 1,020 Climbing Toronto Center
09:44AM 43.4667 -78.6156 90° East 232 267 23,700 840 Climbing Cleveland Center
09:45AM 43.4547 -78.5300 101° East 232 267 24,400 600 Climbing Cleveland Center
09:46AM 43.4450 -78.4389 98° East 237 273 25,000 300 Climbing Cleveland Center
09:47AM 43.4347 -78.3419 98° East 237 273 25,000  Level Cleveland Center
09:48AM 43.4203 -78.2397 101° East 253 291 25,000  Level Cleveland Center
09:49AM 43.4078 -78.1428 100° East 258 297 25,000  Level Cleveland Center
09:50AM 43.3931 -78.0406 101° East 258 297 25,100  Climbing Cleveland Center
09:51AM 43.3761 -77.9383 103° East 263 303 25,000 -60 Descending Cleveland Center
09:52AM 43.3614 -77.8392 102° East 263 303 25,000  Level Cleveland Center
09:53AM 43.3486 -77.7397 100° East 263 303 25,100  Climbing Cleveland Center
09:54AM 43.3378 -77.6433 99° East 258 297 25,100  Level Cleveland Center
09:55AM 43.3269 -77.5439 98° East 258 297 25,100 -60 Level Cleveland Center
09:56AM 43.3053 -77.4056 102° East 260 299 25,000 -60 Descending Boston Center
09:57AM 43.2833 -77.2667 102° East 260 299 25,000  Level Toronto Center
09:58AM 43.2667 -77.1833 105° East 260 299 25,000  Level Toronto Center
09:59AM 43.2500 -77.1000 105° East 260 299 25,100  Climbing Toronto Center
10:00AM 43.2333 -76.9833 101° East 260 299 25,100  Level Toronto Center
10:01AM 43.2333 -76.8833 90° East 260 299 25,100 -60 Level Toronto Center
10:02AM 43.2167 -76.8000 105° East 260 299 25,000  Descending Toronto Center
10:03AM 43.2000 -76.6833 101° East 270 311 25,100  Climbing Toronto Center
10:04AM 43.1833 -76.5833 103° East 270 311 25,000 -60 Descending Toronto Center
10:05AM 43.1667 -76.5000 105° East 270 311 25,000  Level Toronto Center
10:06AM 43.1500 -76.3833 101° East 260 299 25,000  Level Toronto Center
10:07AM 43.1500 -76.3000 90° East 270 311 25,000  Level Toronto Center
10:07AM 43.1542 -76.2969 28° Northeast 260 299 25,000  Level Boston Center
10:08AM 43.1389 -76.1992 102° East 260 299 25,000  Level Boston Center
10:09AM 43.1211 -76.1014 104° East 260 299 25,000  Level Boston Center
10:10AM 43.1014 -76.0036 105° East 260 299 25,000  Level Boston Center
10:11AM 43.0878 -75.9031 100° East 260 299 25,000 -300 Level Boston Center
10:12AM 43.0761 -75.8003 99° East 260 299 24,400 -720 Descending Boston Center
10:13AM 43.0542 -75.6994 107° East 265 305 23,600 -900 Descending Boston Center
10:14AM 43.0361 -75.5961 103° East 270 311 22,700 -900 Descending Boston Center
10:15AM 43.0264 -75.4933 97° East 270 311 21,900 -900 Descending Boston Center
10:16AM 43.0125 -75.3906 100° East 270 311 20,900 -900 Descending Boston Center
10:17AM 42.9919 -75.2931 106° East 270 311 20,100 -780 Descending Boston Center
10:19AM 42.9736 -75.1900 104° East 270 311 19,300 -960 Descending Boston Center
10:20AM 42.9619 -75.0731 98° East 264 304 18,100 -900 Descending Boston Center
10:21AM 42.9517 -74.9733 98° East 264 304 17,500 -840 Descending Boston Center
10:22AM 42.9308 -74.8761 106° East 259 298 16,500 -1,200 Descending Boston Center
10:22AM 42.9114 -74.8017 110° East 263 303 15,500 -1,320 Descending Boston Center
10:23AM 42.9058 -74.7786 108° East 271 312 15,200 -1,380 Descending Boston Center
10:23AM 42.8925 -74.7131 105° East 268 308 14,300 -1,200 Descending Boston Center
10:24AM 42.8872 -74.6703 100° East 271 312 14,000 -1,020 Descending Boston Center
10:24AM 42.8839 -74.6192 95° East 271 312 13,400 -1,020 Descending Boston Center
10:25AM 42.8783 -74.5792 101° East 261 300 13,000 -1,140 Descending Boston Center
10:25AM 42.8711 -74.5167 99° East 272 313 12,300 -1,140 Descending Boston Center
10:26AM 42.8639 -74.4683 102° East 261 300 11,900 -900 Descending Boston Center
10:26AM 42.8558 -74.4425 113° Southeast 270 311 11,600 -1,020 Descending Boston Center
10:27AM 42.8403 -74.3825 109° East 261 300 10,900 -1,020 Descending Boston Center
10:27AM 42.8306 -74.3456 110° East 273 314 10,600 -1,140 Descending Boston Center
10:28AM 42.8128 -74.2769 109° East 271 312 9,800 -1,320 Descending Boston Center
10:28AM 42.7986 -74.2453 121° Southeast 272 313 9,300 -1,320 Descending Boston Center
10:29AM 42.7808 -74.1967 116° Southeast 271 312 8,500 -1,320 Descending Boston Center
10:29AM 42.7586 -74.1425 119° Southeast 266 306 7,700 -1,320 Descending Boston Center
10:30AM 42.7447 -74.0939 111° Southeast 271 312 7,200 -1,200 Descending Boston Center
10:30AM 42.7289 -74.0397 112° Southeast 255 293 6,400 -1,200 Descending Boston Center
10:31AM 42.7231 -74.0086 104° East 253 291 6,000 -1,620 Descending Boston Center
10:31AM 42.7092 -73.9631 113° Southeast 254 292 5,100 -2,040 Descending Boston Center
10:32AM 42.6992 -73.9206 108° East 253 291 4,000 -2,400 Descending Boston Center
10:32AM 42.6914 -73.8778 104° East 229 264 2,700 -540 Descending Boston Center
10:33AM 42.6753 -73.8436 123° Southeast 253 291 3,500 -1,380 Climbing Boston Center
10:33AM 42.7047 -73.8103 40° Northeast 151 174 1,200 -3,840 Descending Boston Center